Nuiqsut Airport Nuiqsut US
ICAO: PAQT
IATA:
Category: Medium
Scheduled Services:

Elevation: 38 ft
TransAlt. 0 ft.

Airport Communications:
ANCHORAGE CNTR:119.4
ASOS:122.5
CTAF:122.8
DEADHORSE RDO:122.5

PAQT Zoom In..

Runways:

(A) RW 05 length 4589 ft width 100 ft
---- / hdg 49

(B) RW 23 length 4589 ft width 100 ft
---- / hdg 229

Location; PAQT
Day. 15 / Time. 22.53 Zulu
* Altimeter: 29.67
* Temperature: 18° c. 64.4°f.
* Wind from: VRB° Speed 05 kn.
Dewpoint: 09° c.
Visibility: 10 Statute Miles.
Clouds: Broken 3900 ft.
Clouds: Broken 1000 ft.

PAQT 152253Z AUTO VRB05KT 10SM BKN039 BKN100 18/09 A2967 RMK AO2 SLP047 T01780094 TSNO $


Wind From VRB°
Speed 05 kn.

 
 
jpsmedia.com for Web Design worldairports.se 2018   terms of use